createdAt,value
2022-09-16T00:02:09.279Z,99874.33
2022-09-16T00:17:00.425Z,99857.75
2022-09-16T00:31:52.171Z,99867.64
2022-09-16T00:46:44.217Z,99866.42
2022-09-16T01:01:35.106Z,99862.99
2022-09-16T01:16:29.078Z,99874.83
2022-09-16T01:31:27.128Z,99839.86
2022-09-16T01:46:21.168Z,99855.43
2022-09-16T02:01:15.247Z,99851.68
2022-09-16T02:16:12.595Z,99852.34
2022-09-16T02:31:07.532Z,99860.48
2022-09-16T02:46:26.893Z,99852.89
2022-09-16T03:01:23.870Z,99858.48
2022-09-16T03:16:24.632Z,99847.27
2022-09-16T03:31:23.100Z,99836.07
2022-09-16T03:46:17.445Z,99828.16
2022-09-16T04:01:10.344Z,99824.08
2022-09-16T04:16:03.365Z,99826.31
2022-09-16T04:30:55.009Z,99833.52
2022-09-16T04:45:47.404Z,99826.66
2022-09-16T05:00:39.752Z,99839.39
2022-09-16T05:15:32.378Z,99836.19
2022-09-16T05:30:26.170Z,99837.32
2022-09-16T05:45:18.099Z,99844.30
2022-09-16T06:00:07.130Z,99851.73
2022-09-16T06:14:58.732Z,99862.77
2022-09-16T06:29:50.740Z,99873.05
2022-09-16T06:44:42.927Z,99869.31
2022-09-16T06:59:34.929Z,99863.65
2022-09-16T07:14:26.895Z,99881.92
2022-09-16T07:29:18.577Z,99881.07
2022-09-16T07:44:13.574Z,99885.61
2022-09-16T07:59:07.404Z,99902.45
2022-09-16T08:29:07.755Z,99912.00
2022-09-16T08:43:42.444Z,99914.58
2022-09-16T08:58:39.105Z,99930.19
2022-09-16T09:13:40.746Z,99937.75
2022-09-16T09:44:27.465Z,99937.88
2022-09-16T09:59:33.264Z,99931.77
2022-09-16T10:14:35.590Z,99942.95
2022-09-16T10:29:31.423Z,99926.52
2022-09-16T10:44:26.294Z,99930.07
2022-09-16T10:59:21.024Z,99921.19
2022-09-16T11:14:42.788Z,99928.23
2022-09-16T11:30:12.682Z,99927.12
2022-09-16T11:45:10.042Z,99907.91
2022-09-16T12:00:07.069Z,99900.09
2022-09-16T12:15:05.994Z,99884.91
2022-09-16T12:30:02.999Z,99866.58
2022-09-16T12:45:21.817Z,99866.42
2022-09-16T13:00:29.276Z,99852.71
2022-09-16T13:15:22.609Z,99839.84
2022-09-16T13:30:17.833Z,99831.48
2022-09-16T13:45:30.825Z,99822.34
2022-09-16T14:00:36.354Z,99815.70
2022-09-16T14:15:32.070Z,99819.28
2022-09-16T14:45:28.375Z,99803.55
2022-09-16T15:00:29.760Z,99812.02
2022-09-16T15:15:24.789Z,99803.55
2022-09-16T15:30:20.834Z,99804.61
2022-09-16T15:45:17.856Z,99815.16
2022-09-16T16:00:12.256Z,99825.41
2022-09-16T16:15:02.799Z,99854.00
2022-09-16T16:29:53.548Z,99855.11
2022-09-16T16:44:44.479Z,99868.38
2022-09-16T16:59:35.747Z,99881.78
2022-09-16T17:14:26.593Z,99896.00
2022-09-16T17:29:17.185Z,99914.33
2022-09-16T17:44:06.582Z,99913.02
2022-09-16T19:03:21.229Z,99994.11
2022-09-16T19:18:13.507Z,100007.80
2022-09-16T19:48:07.943Z,100008.22
2022-09-16T20:02:58.984Z,100033.77
2022-09-16T20:17:51.167Z,100043.13
2022-09-16T20:32:42.484Z,100054.63
2022-09-16T20:47:33.582Z,100063.16
2022-09-16T21:02:24.474Z,100070.66
2022-09-16T21:17:15.859Z,100083.23
2022-09-16T21:32:06.515Z,100097.73
2022-09-16T21:46:57.620Z,100103.90
2022-09-16T22:01:50.903Z,100094.56
2022-09-16T22:16:42.265Z,100099.89
2022-09-16T22:31:33.826Z,100103.23
2022-09-16T22:46:25.246Z,100102.02
2022-09-16T23:01:16.274Z,100089.38
2022-09-16T23:16:08.228Z,100101.22
2022-09-16T23:31:08.799Z,100093.28
2022-09-16T23:46:04.154Z,100093.27
